createdAt,value
2018-02-20T00:01:45.479Z,101847.23
2018-02-20T00:04:13.111Z,101850.91
2018-02-20T00:06:40.845Z,101849.69
2018-02-20T00:09:08.818Z,101843.84
2018-02-20T00:11:36.454Z,101845.59
2018-02-20T00:14:04.202Z,101842.39
2018-02-20T00:16:31.796Z,101841.70
2018-02-20T00:18:59.435Z,101838.23
2018-02-20T00:21:27.108Z,101838.41
2018-02-20T00:23:54.759Z,101834.64
2018-02-20T00:26:22.372Z,101836.71
2018-02-20T00:28:49.994Z,101835.88
2018-02-20T00:31:17.620Z,101830.45
2018-02-20T00:33:45.255Z,101831.89
2018-02-20T00:36:12.847Z,101831.20
2018-02-20T00:38:40.466Z,101827.20
2018-02-20T00:41:08.130Z,101834.17
2018-02-20T00:43:35.758Z,101835.28
2018-02-20T00:46:03.613Z,101832.52
2018-02-20T00:48:31.277Z,101831.56
2018-02-20T00:50:58.881Z,101830.98
2018-02-20T00:53:26.509Z,101824.12
2018-02-20T00:55:54.160Z,101818.81
2018-02-20T00:58:21.866Z,101829.36
2018-02-20T01:00:49.463Z,101817.70
2018-02-20T01:03:17.063Z,101816.70
2018-02-20T01:05:44.706Z,101812.08
2018-02-20T01:08:12.322Z,101807.68
2018-02-20T01:10:40.004Z,101808.73
2018-02-20T01:13:07.622Z,101803.41
2018-02-20T01:15:35.251Z,101813.12
2018-02-20T01:18:02.927Z,101817.11
2018-02-20T01:20:30.566Z,101817.84
2018-02-20T01:22:58.197Z,101812.22
2018-02-20T01:25:25.867Z,101809.98
2018-02-20T01:27:53.813Z,101808.03
2018-02-20T01:30:21.416Z,101807.02
2018-02-20T01:32:49.089Z,101808.95
2018-02-20T01:35:17.007Z,101812.25
2018-02-20T01:37:44.651Z,101811.94
2018-02-20T01:40:12.336Z,101809.49
2018-02-20T01:42:40.298Z,101811.53
2018-02-20T01:45:07.889Z,101814.52
2018-02-20T01:47:35.607Z,101812.06
2018-02-20T01:50:03.203Z,101806.33
2018-02-20T01:52:30.868Z,101806.85
2018-02-20T01:54:58.490Z,101811.75
2018-02-20T01:57:26.119Z,101812.70
2018-02-20T01:59:53.785Z,101808.28
2018-02-20T02:02:21.385Z,101808.39
2018-02-20T02:04:49.057Z,101813.52
2018-02-20T02:07:16.915Z,101816.59
2018-02-20T02:09:44.540Z,101814.23
2018-02-20T02:12:12.177Z,101814.77
2018-02-20T02:14:40.119Z,101812.73
2018-02-20T02:17:07.795Z,101821.20
2018-02-20T02:19:35.750Z,101823.17
2018-02-20T02:22:03.449Z,101826.33
2018-02-20T02:24:31.064Z,101831.54
2018-02-20T02:26:58.700Z,101829.51
2018-02-20T02:29:26.698Z,101842.28
2018-02-20T02:31:54.344Z,101838.81
2018-02-20T02:34:21.966Z,101841.89
2018-02-20T02:36:49.565Z,101841.26
2018-02-20T02:39:17.218Z,101842.48
2018-02-20T02:41:44.864Z,101836.77
2018-02-20T02:44:12.564Z,101838.17
2018-02-20T02:46:40.191Z,101834.89
2018-02-20T02:49:07.872Z,101839.20
2018-02-20T02:51:35.725Z,101838.15
2018-02-20T02:54:03.446Z,101841.33
2018-02-20T02:56:31.101Z,101841.22
2018-02-20T02:58:58.783Z,101839.88
2018-02-20T03:01:26.421Z,101843.98
2018-02-20T03:03:54.108Z,101839.28
2018-02-20T03:06:21.695Z,101843.16
2018-02-20T03:08:49.724Z,101845.83
2018-02-20T03:11:17.378Z,101843.75
2018-02-20T03:13:45.049Z,101846.84
2018-02-20T03:16:12.677Z,101847.84
2018-02-20T03:18:40.379Z,101837.20
2018-02-20T03:21:08.094Z,101841.72
2018-02-20T03:23:35.740Z,101841.82
2018-02-20T03:26:03.436Z,101830.86
2018-02-20T03:28:31.090Z,101839.38
2018-02-20T03:30:58.693Z,101836.09
2018-02-20T03:33:26.362Z,101831.67
2018-02-20T03:35:54.040Z,101835.89
2018-02-20T03:38:22.005Z,101830.56
2018-02-20T03:40:49.679Z,101837.53
2018-02-20T03:43:17.493Z,101835.50
2018-02-20T03:45:45.196Z,101840.99
2018-02-20T03:48:12.868Z,101838.54
2018-02-20T03:50:40.513Z,101841.30
2018-02-20T03:53:08.342Z,101841.30
2018-02-20T03:58:49.609Z,101853.28
2018-02-20T04:01:17.301Z,101856.67
2018-02-20T04:03:44.942Z,101858.83
2018-02-20T04:06:12.565Z,101867.94
2018-02-20T04:08:40.624Z,101864.05
2018-02-20T04:11:08.345Z,101866.09
2018-02-20T04:13:36.055Z,101870.61
2018-02-20T04:16:04.017Z,101866.73
2018-02-20T04:18:31.700Z,101875.62
2018-02-20T04:20:59.328Z,101872.36
2018-02-20T04:23:27.156Z,101876.95
2018-02-20T04:25:54.780Z,101875.62
2018-02-20T04:28:22.445Z,101882.28
2018-02-20T04:30:50.263Z,101883.92
2018-02-20T04:33:17.945Z,101887.22
2018-02-20T04:35:45.843Z,101889.15
2018-02-20T04:38:13.508Z,101888.03
2018-02-20T04:40:41.123Z,101883.34
2018-02-20T04:43:08.838Z,101876.38
2018-02-20T04:45:36.741Z,101875.64
2018-02-20T04:48:04.402Z,101869.72
2018-02-20T04:50:32.221Z,101867.77
2018-02-20T04:52:59.944Z,101868.50
2018-02-20T04:55:28.113Z,101859.38
2018-02-20T04:57:55.747Z,101860.11
2018-02-20T05:00:23.377Z,101870.65
2018-02-20T05:02:51.061Z,101868.30
2018-02-20T05:05:18.687Z,101873.00
2018-02-20T05:07:46.292Z,101871.56
2018-02-20T05:10:13.946Z,101868.31
2018-02-20T05:12:41.567Z,101866.77
2018-02-20T05:15:09.617Z,101870.55
2018-02-20T05:17:37.588Z,101873.74
2018-02-20T05:20:05.736Z,101869.65
2018-02-20T05:22:34.058Z,101870.45
2018-02-20T05:25:02.199Z,101866.89
2018-02-20T05:27:29.888Z,101870.14
2018-02-20T05:29:57.523Z,101861.57
2018-02-20T05:32:25.185Z,101860.94
2018-02-20T05:34:58.469Z,101864.23
2018-02-20T05:37:26.139Z,101866.16
2018-02-20T05:39:54.169Z,101868.01
2018-02-20T05:42:22.027Z,101870.14
2018-02-20T05:44:49.767Z,101874.13
2018-02-20T05:47:17.647Z,101867.48
2018-02-20T05:49:45.632Z,101865.25
2018-02-20T05:52:13.266Z,101869.55
2018-02-20T05:54:40.983Z,101860.34
2018-02-20T05:57:08.632Z,101873.44
2018-02-20T05:59:36.573Z,101871.69
2018-02-20T06:02:04.190Z,101869.23
2018-02-20T06:04:31.832Z,101866.68
2018-02-20T06:06:59.472Z,101869.94
2018-02-20T06:09:27.135Z,101865.77
2018-02-20T06:11:54.806Z,101873.74
2018-02-20T06:14:22.427Z,101874.34
2018-02-20T06:16:50.048Z,101882.32
2018-02-20T06:19:17.636Z,101883.33
2018-02-20T06:21:45.314Z,101879.97
2018-02-20T06:24:12.919Z,101879.66
2018-02-20T06:26:40.559Z,101877.41
2018-02-20T06:29:08.172Z,101884.27
2018-02-20T06:31:35.782Z,101882.62
2018-02-20T06:34:03.416Z,101885.06
2018-02-20T06:36:31.044Z,101887.31
2018-02-20T06:38:58.707Z,101886.81
2018-02-20T06:41:26.341Z,101894.59
2018-02-20T06:43:53.965Z,101898.78
2018-02-20T06:46:21.675Z,101907.35
2018-02-20T06:48:49.472Z,101899.59
2018-02-20T06:51:17.110Z,101903.67
2018-02-20T06:53:44.768Z,101897.73
2018-02-20T06:56:12.411Z,101899.58
2018-02-20T06:58:40.321Z,101895.59
2018-02-20T07:01:08.074Z,101892.02
2018-02-20T07:03:35.748Z,101892.70
2018-02-20T07:06:03.395Z,101897.32
2018-02-20T07:08:31.086Z,101889.45
2018-02-20T07:10:58.715Z,101898.75
2018-02-20T07:13:26.326Z,101906.10
2018-02-20T07:15:53.974Z,101907.75
2018-02-20T07:18:21.677Z,101915.52
2018-02-20T07:20:49.382Z,101915.95
2018-02-20T07:23:17.007Z,101914.22
2018-02-20T07:26:08.606Z,101915.03
2018-02-20T07:28:36.246Z,101914.44
2018-02-20T07:31:03.915Z,101920.88
2018-02-20T07:33:31.549Z,101912.59
2018-02-20T07:35:59.161Z,101918.23
2018-02-20T07:38:26.816Z,101917.11
2018-02-20T07:40:54.564Z,101922.22
2018-02-20T07:43:22.246Z,101912.91
2018-02-20T07:45:49.931Z,101908.53
2018-02-20T07:48:17.878Z,101909.64
2018-02-20T07:50:45.491Z,101896.01
2018-02-20T07:53:13.202Z,101900.89
2018-02-20T07:55:40.874Z,101902.10
2018-02-20T07:58:08.612Z,101906.28
2018-02-20T08:00:36.625Z,101908.81
2018-02-20T08:03:04.295Z,101902.76
2018-02-20T08:05:32.033Z,101895.36
2018-02-20T08:07:59.728Z,101900.87
2018-02-20T08:10:27.390Z,101903.08
2018-02-20T08:12:55.117Z,101904.16
2018-02-20T08:15:22.905Z,101911.91
2018-02-20T08:17:50.594Z,101917.63
2018-02-20T08:20:18.301Z,101917.38
2018-02-20T08:22:57.898Z,101915.51
2018-02-20T08:25:25.632Z,101915.23
2018-02-20T08:27:53.277Z,101913.73
2018-02-20T08:30:20.962Z,101911.44
2018-02-20T08:32:49.037Z,101918.84
2018-02-20T08:35:16.703Z,101920.52
2018-02-20T08:37:44.454Z,101928.97
2018-02-20T08:40:12.129Z,101917.14
2018-02-20T08:42:39.816Z,101913.61
2018-02-20T08:45:07.471Z,101907.57
2018-02-20T08:47:35.139Z,101906.32
2018-02-20T08:50:02.876Z,101915.33
2018-02-20T08:52:30.524Z,101911.37
2018-02-20T08:54:58.186Z,101911.63
2018-02-20T08:57:25.877Z,101914.65
2018-02-20T08:59:53.570Z,101908.67
2018-02-20T09:02:22.113Z,101915.09
2018-02-20T09:04:49.804Z,101905.17
2018-02-20T09:07:17.742Z,101902.47
2018-02-20T09:09:45.381Z,101907.44
2018-02-20T09:12:13.051Z,101907.70
2018-02-20T09:14:40.695Z,101910.42
2018-02-20T09:17:08.336Z,101913.89
2018-02-20T09:19:36.002Z,101917.34
2018-02-20T09:22:03.631Z,101922.95
2018-02-20T09:24:31.266Z,101921.66
2018-02-20T09:26:59.234Z,101917.61
2018-02-20T09:29:26.874Z,101922.03
2018-02-20T09:31:54.495Z,101926.16
2018-02-20T09:34:22.535Z,101932.53
2018-02-20T09:36:50.495Z,101928.94
2018-02-20T09:39:18.154Z,101929.77
2018-02-20T09:41:45.889Z,101926.51
2018-02-20T09:44:13.509Z,101929.90
2018-02-20T09:46:41.585Z,101933.52
2018-02-20T09:49:09.240Z,101932.81
2018-02-20T09:51:36.836Z,101934.66
2018-02-20T09:54:04.572Z,101941.83
2018-02-20T09:56:32.188Z,101942.84
2018-02-20T09:58:59.839Z,101939.80
2018-02-20T10:01:27.495Z,101936.30
2018-02-20T10:03:55.185Z,101940.70
2018-02-20T10:06:23.141Z,101948.81
2018-02-20T10:08:50.852Z,101945.80
2018-02-20T10:11:18.524Z,101949.89
2018-02-20T10:13:46.461Z,101952.22
2018-02-20T10:16:14.531Z,101951.58
2018-02-20T10:18:42.217Z,101954.86
2018-02-20T10:21:09.924Z,101951.41
2018-02-20T10:23:37.576Z,101957.02
2018-02-20T10:26:05.276Z,101958.98
2018-02-20T10:28:32.928Z,101964.64
2018-02-20T10:31:00.616Z,101968.54
2018-02-20T10:33:28.294Z,101967.84
2018-02-20T10:35:56.004Z,101972.49
2018-02-20T10:38:23.627Z,101972.78
2018-02-20T10:40:51.291Z,101973.39
2018-02-20T10:43:18.963Z,101969.59
2018-02-20T10:45:46.657Z,101971.38
2018-02-20T10:48:14.577Z,101973.27
2018-02-20T10:50:42.247Z,101973.86
2018-02-20T10:53:09.868Z,101970.07
2018-02-20T10:55:37.578Z,101975.34
2018-02-20T10:58:05.617Z,101982.84
2018-02-20T11:00:33.278Z,101988.03
2018-02-20T11:03:01.033Z,101983.95
2018-02-20T11:05:29.438Z,101979.03
2018-02-20T11:07:57.084Z,101981.69
2018-02-20T11:10:24.820Z,101985.40
2018-02-20T11:12:52.527Z,101984.78
2018-02-20T11:15:20.152Z,101994.14
2018-02-20T11:17:48.087Z,101987.75
2018-02-20T11:20:15.757Z,101989.02
2018-02-20T11:22:43.665Z,101981.42
2018-02-20T11:25:11.379Z,101980.42
2018-02-20T11:27:39.058Z,101971.64
2018-02-20T11:30:06.752Z,101968.87
2018-02-20T11:32:34.424Z,101969.67
2018-02-20T11:35:03.290Z,101963.24
2018-02-20T11:37:30.915Z,101961.98
2018-02-20T11:39:58.823Z,101959.88
2018-02-20T11:42:26.803Z,101960.17
2018-02-20T11:44:54.393Z,101962.27
2018-02-20T11:47:22.086Z,101958.62
2018-02-20T11:49:50.110Z,101961.56
2018-02-20T11:52:17.759Z,101959.34
2018-02-20T11:54:45.475Z,101962.23
2018-02-20T11:57:13.117Z,101962.57
2018-02-20T11:59:40.865Z,101969.42
2018-02-20T12:02:08.617Z,101965.80
2018-02-20T12:04:36.312Z,101974.29
2018-02-20T12:07:04.035Z,101972.53
2018-02-20T12:09:31.743Z,101984.67
2018-02-20T12:11:59.455Z,101987.69
2018-02-20T12:14:27.186Z,101979.88
2018-02-20T12:16:54.891Z,101986.56
2018-02-20T12:19:22.586Z,101980.27
2018-02-20T12:21:50.253Z,101986.55
2018-02-20T12:24:17.926Z,101987.73
2018-02-20T12:26:45.619Z,101986.77
2018-02-20T12:29:13.333Z,101985.09
2018-02-20T12:31:41.392Z,101986.44
2018-02-20T12:34:09.058Z,101982.70
2018-02-20T12:36:37.117Z,101985.20
2018-02-20T12:39:04.881Z,101989.63
2018-02-20T12:41:32.537Z,101990.81
2018-02-20T12:44:00.261Z,101991.14
2018-02-20T12:46:27.916Z,101989.42
2018-02-20T12:48:55.945Z,101983.06
2018-02-20T12:51:23.667Z,101986.72
2018-02-20T12:53:52.499Z,101980.38
2018-02-20T12:56:20.207Z,101982.08
2018-02-20T12:58:47.938Z,101978.85
2018-02-20T13:01:15.580Z,101977.02
2018-02-20T13:03:43.257Z,101984.98
2018-02-20T13:06:10.893Z,101979.15
2018-02-20T13:08:38.542Z,101978.09
2018-02-20T13:11:06.641Z,101972.47
2018-02-20T13:13:34.311Z,101978.10
2018-02-20T13:16:02.288Z,101972.84
2018-02-20T13:18:30.035Z,101973.40
2018-02-20T13:20:57.713Z,101967.12
2018-02-20T13:23:25.771Z,101970.28
2018-02-20T13:25:53.440Z,101966.33
2018-02-20T13:28:21.115Z,101976.59
2018-02-20T13:30:48.766Z,101965.29
2018-02-20T13:33:16.461Z,101965.55
2018-02-20T13:35:44.289Z,101967.02
2018-02-20T13:38:11.959Z,101962.85
2018-02-20T13:40:39.665Z,101960.91
2018-02-20T13:43:07.395Z,101959.56
2018-02-20T13:45:35.057Z,101964.98
2018-02-20T13:48:02.817Z,101961.33
2018-02-20T13:50:30.899Z,101956.41
2018-02-20T13:52:58.653Z,101959.02
2018-02-20T13:55:26.350Z,101963.00
2018-02-20T13:57:54.390Z,101963.24
2018-02-20T14:00:22.178Z,101963.32
2018-02-20T14:02:49.821Z,101960.39
2018-02-20T14:05:17.591Z,101950.37
2018-02-20T14:07:45.270Z,101959.31
2018-02-20T14:10:13.021Z,101951.53
2018-02-20T14:12:40.743Z,101955.67
2018-02-20T14:15:08.393Z,101945.00
2018-02-20T14:17:36.035Z,101948.87
2018-02-20T14:20:03.770Z,101946.92
2018-02-20T14:22:31.480Z,101949.00
2018-02-20T14:24:59.306Z,101948.39
2018-02-20T14:27:27.060Z,101953.34
2018-02-20T14:29:54.787Z,101948.77
2018-02-20T14:32:22.492Z,101950.77
2018-02-20T14:34:50.271Z,101950.80
2018-02-20T14:37:18.249Z,101944.97
2018-02-20T14:39:45.925Z,101944.02
2018-02-20T14:42:13.759Z,101949.58
2018-02-20T14:44:41.432Z,101952.91
2018-02-20T14:47:09.096Z,101956.50
2018-02-20T14:49:37.844Z,101953.89
2018-02-20T14:52:05.568Z,101945.11
2018-02-20T14:54:33.334Z,101948.66
2018-02-20T14:57:01.159Z,101951.59
2018-02-20T14:59:28.850Z,101947.68
2018-02-20T15:01:56.889Z,101953.70
2018-02-20T15:04:24.637Z,101959.97
2018-02-20T15:06:52.727Z,101961.45
2018-02-20T15:09:20.686Z,101960.38
2018-02-20T15:11:48.769Z,101967.00
2018-02-20T15:14:16.456Z,101962.64
2018-02-20T15:16:44.185Z,101959.61
2018-02-20T15:19:11.878Z,101967.70
2018-02-20T15:21:39.757Z,101961.83
2018-02-20T15:24:07.439Z,101963.50
2018-02-20T15:26:35.441Z,101965.09
2018-02-20T15:29:03.123Z,101968.81
2018-02-20T15:31:30.870Z,101964.73
2018-02-20T15:33:58.496Z,101965.64
2018-02-20T15:36:26.330Z,101970.06
2018-02-20T15:38:54.032Z,101969.48
2018-02-20T15:41:21.807Z,101962.33
2018-02-20T15:43:49.543Z,101971.69
2018-02-20T15:46:17.264Z,101973.85
2018-02-20T15:48:44.997Z,101975.95
2018-02-20T15:51:12.719Z,101986.84
2018-02-20T15:53:40.417Z,101988.46
2018-02-20T15:56:08.075Z,101986.83
2018-02-20T15:58:35.728Z,101988.55
2018-02-20T16:01:03.415Z,101984.40
2018-02-20T16:03:31.161Z,101990.83
2018-02-20T16:05:58.869Z,101988.52
2018-02-20T16:08:26.721Z,101997.05
2018-02-20T16:10:54.397Z,101998.16
2018-02-20T16:13:22.026Z,102005.81
2018-02-20T16:15:54.012Z,102005.42
2018-02-20T16:18:21.666Z,102011.17
2018-02-20T16:20:49.295Z,102015.23
2018-02-20T16:23:17.321Z,102018.27
2018-02-20T16:25:44.980Z,102021.57
2018-02-20T16:28:12.628Z,102023.97
2018-02-20T16:30:40.337Z,102028.91
2018-02-20T16:33:07.973Z,102029.20
2018-02-20T16:35:35.647Z,102024.61
2018-02-20T16:38:03.320Z,102032.16
2018-02-20T16:40:30.952Z,102038.45
2018-02-20T16:42:58.556Z,102039.98
2018-02-20T16:45:26.231Z,102041.80
2018-02-20T16:47:54.130Z,102049.70
2018-02-20T16:50:21.770Z,102044.94
2018-02-20T16:52:49.461Z,102043.92
2018-02-20T16:55:17.120Z,102049.23
2018-02-20T16:57:44.772Z,102053.16
2018-02-20T17:00:12.859Z,102055.33
2018-02-20T17:02:40.501Z,102063.13
2018-02-20T17:05:08.169Z,102064.85
2018-02-20T17:07:35.786Z,102073.30
2018-02-20T17:10:03.454Z,102076.60
2018-02-20T17:12:31.136Z,102075.92
2018-02-20T17:14:59.140Z,102080.94
2018-02-20T17:17:27.006Z,102076.44
2018-02-20T17:19:54.684Z,102083.81
2018-02-20T17:22:22.332Z,102096.92
2018-02-20T17:24:50.110Z,102102.77
2018-02-20T17:27:17.727Z,102107.95
2018-02-20T17:29:45.637Z,102110.45
2018-02-20T17:32:13.348Z,102115.94
2018-02-20T17:34:41.102Z,102117.45
2018-02-20T17:37:08.791Z,102118.44
2018-02-20T17:39:36.668Z,102122.22
2018-02-20T17:42:04.399Z,102116.34
2018-02-20T17:44:32.065Z,102118.27
2018-02-20T17:46:59.776Z,102115.34
2018-02-20T17:49:27.449Z,102122.14
2018-02-20T17:51:55.136Z,102129.52
2018-02-20T17:54:22.786Z,102135.29
2018-02-20T17:56:50.483Z,102136.38
2018-02-20T17:59:18.160Z,102138.98
2018-02-20T18:01:45.896Z,102141.34
2018-02-20T18:04:13.608Z,102154.25
2018-02-20T18:06:41.399Z,102153.42
2018-02-20T18:09:09.121Z,102153.17
2018-02-20T18:11:36.780Z,102159.37
2018-02-20T18:14:04.607Z,102152.61
2018-02-20T18:16:32.268Z,102162.87
2018-02-20T18:18:59.973Z,102159.16
2018-02-20T18:21:28.535Z,102161.38
2018-02-20T18:23:56.211Z,102169.85
2018-02-20T18:26:23.846Z,102173.34
2018-02-20T18:28:51.566Z,102190.61
2018-02-20T18:31:20.212Z,102183.34
2018-02-20T18:33:47.865Z,102188.58
2018-02-20T18:36:15.790Z,102182.66
2018-02-20T18:38:43.512Z,102194.62
2018-02-20T18:41:11.278Z,102203.13
2018-02-20T18:43:38.960Z,102194.59
2018-02-20T18:46:06.729Z,102202.78
2018-02-20T18:48:34.375Z,102202.63
2018-02-20T18:51:02.086Z,102200.31
2018-02-20T18:53:29.786Z,102196.64
2018-02-20T18:55:57.460Z,102204.71
2018-02-20T18:58:25.089Z,102213.16
2018-02-20T19:00:52.722Z,102217.44
2018-02-20T19:03:20.371Z,102216.66
2018-02-20T19:05:50.038Z,102217.53
2018-02-20T19:08:18.218Z,102215.53
2018-02-20T19:10:45.890Z,102215.56
2018-02-20T19:13:13.611Z,102223.81
2018-02-20T19:15:41.276Z,102224.06
2018-02-20T19:18:08.916Z,102232.00
2018-02-20T19:20:36.519Z,102240.48
2018-02-20T19:23:04.157Z,102243.41
2018-02-20T19:25:31.862Z,102244.57
2018-02-20T19:27:59.888Z,102249.44
2018-02-20T19:30:27.515Z,102249.47
2018-02-20T19:32:55.203Z,102249.71
2018-02-20T19:35:22.851Z,102258.59
2018-02-20T19:37:50.487Z,102265.10
2018-02-20T19:40:18.212Z,102264.69
2018-02-20T19:42:45.875Z,102266.57
2018-02-20T19:45:13.559Z,102272.22
2018-02-20T19:47:41.269Z,102275.62
2018-02-20T19:50:08.922Z,102272.23
2018-02-20T19:52:36.570Z,102273.75
2018-02-20T19:55:04.583Z,102280.04
2018-02-20T19:57:32.215Z,102279.91
2018-02-20T19:59:59.882Z,102289.98
2018-02-20T20:02:27.513Z,102291.75
2018-02-20T20:04:55.214Z,102287.02
2018-02-20T20:07:22.858Z,102290.02
2018-02-20T20:09:50.571Z,102290.03
2018-02-20T20:12:18.445Z,102294.47
2018-02-20T20:14:46.085Z,102292.53
2018-02-20T20:17:13.920Z,102294.41
2018-02-20T20:19:41.567Z,102304.06
2018-02-20T20:22:09.194Z,102298.13
2018-02-20T20:24:37.122Z,102306.47
2018-02-20T20:27:04.813Z,102307.28
2018-02-20T20:29:32.483Z,102311.52
2018-02-20T20:32:00.143Z,102310.59
2018-02-20T20:34:27.866Z,102316.23
2018-02-20T20:36:55.757Z,102326.23
2018-02-20T20:39:23.402Z,102326.84
2018-02-20T20:41:51.092Z,102328.73
2018-02-20T20:44:19.901Z,102331.50
2018-02-20T20:46:48.552Z,102333.44
2018-02-20T20:49:16.162Z,102324.10
2018-02-20T20:51:43.832Z,102330.78
2018-02-20T20:54:13.502Z,102320.64
2018-02-20T20:56:41.184Z,102325.67
2018-02-20T20:59:08.909Z,102322.79
2018-02-20T21:01:36.584Z,102322.51
2018-02-20T21:04:04.320Z,102328.87
2018-02-20T21:06:31.990Z,102332.56
2018-02-20T21:09:00.004Z,102341.91
2018-02-20T21:11:27.689Z,102353.50
2018-02-20T21:13:55.601Z,102351.89
2018-02-20T21:16:23.272Z,102366.58
2018-02-20T21:18:51.015Z,102373.25
2018-02-20T21:21:18.827Z,102374.67
2018-02-20T21:23:46.596Z,102380.84
2018-02-20T21:26:14.289Z,102376.95
2018-02-20T21:28:42.038Z,102379.83
2018-02-20T21:31:09.775Z,102377.06
2018-02-20T21:33:37.490Z,102364.83
2018-02-20T21:36:05.225Z,102358.97
2018-02-20T21:38:32.937Z,102361.54
2018-02-20T21:41:00.782Z,102358.87
2018-02-20T21:43:28.415Z,102367.19
2018-02-20T21:45:56.055Z,102377.97
2018-02-20T21:48:23.796Z,102376.43
2018-02-20T21:50:51.462Z,102373.16
2018-02-20T21:53:19.534Z,102366.49
2018-02-20T21:55:47.314Z,102367.83
2018-02-20T21:58:14.977Z,102371.20
2018-02-20T22:00:42.679Z,102375.41
2018-02-20T22:03:10.304Z,102380.02
2018-02-20T22:05:53.263Z,102384.12
2018-02-20T22:08:20.946Z,102391.53
2018-02-20T22:10:48.596Z,102399.53
2018-02-20T22:13:16.361Z,102408.03
2018-02-20T22:15:44.056Z,102416.45
2018-02-20T22:18:11.858Z,102424.03
2018-02-20T22:20:39.833Z,102424.34
2018-02-20T22:23:07.490Z,102422.69
2018-02-20T22:25:35.174Z,102423.91
2018-02-20T22:28:02.931Z,102427.91
2018-02-20T22:30:31.056Z,102435.62
2018-02-20T22:32:58.755Z,102433.23
2018-02-20T22:35:26.400Z,102443.53
2018-02-20T22:37:54.025Z,102444.13
2018-02-20T22:40:21.733Z,102443.70
2018-02-20T22:42:49.391Z,102438.88
2018-02-20T22:45:17.118Z,102428.09
2018-02-20T22:47:44.742Z,102429.74
2018-02-20T22:50:12.526Z,102432.41
2018-02-20T22:52:40.369Z,102439.39
2018-02-20T22:55:07.998Z,102437.54
2018-02-20T22:57:35.643Z,102438.66
2018-02-20T23:00:03.430Z,102445.33
2018-02-20T23:02:31.992Z,102447.39
2018-02-20T23:04:59.680Z,102458.08
2018-02-20T23:07:27.439Z,102460.31
2018-02-20T23:09:55.108Z,102466.77
2018-02-20T23:12:22.907Z,102468.09
2018-02-20T23:14:50.602Z,102468.51
2018-02-20T23:17:18.266Z,102472.81
2018-02-20T23:19:45.938Z,102476.38
2018-02-20T23:22:13.612Z,102481.39
2018-02-20T23:24:41.281Z,102477.28
2018-02-20T23:27:09.015Z,102484.68
2018-02-20T23:29:36.629Z,102485.69
2018-02-20T23:32:04.307Z,102482.60
2018-02-20T23:34:32.000Z,102483.11
2018-02-20T23:36:59.699Z,102484.33
2018-02-20T23:39:27.404Z,102481.55
2018-02-20T23:41:55.086Z,102478.26
2018-02-20T23:44:22.720Z,102477.34
2018-02-20T23:46:50.437Z,102472.44
2018-02-20T23:49:18.139Z,102469.88
2018-02-20T23:51:45.854Z,102465.66
2018-02-20T23:54:21.168Z,102461.55
2018-02-20T23:56:48.973Z,102467.78
2018-02-20T23:59:16.682Z,102470.03
